CW6780 Weather Reports


Display with metric or nautical units.
time (UTC)temp
F
wind
direction
speed
MPH
gust
MPH
rain 1hr
in
rain 24hr
in
rain mn
in
humidity
%
barometer
mb
20220702205615 69 264 3.0 8.0 0.00 0.00 0.00 59 1009.6
20220702203615 69 192 3.0 9.0 0.00 0.00 0.00 58 1009.7
20220702202615 70 203 4.0 11.0 0.00 0.00 0.00 57 1009.9
20220702201615 70 195 3.0 8.0 0.00 0.00 0.00 57 1009.9
20220702200615 71 210 3.0 9.0 0.00 0.00 0.00 57 1009.9
20220702195615 71 210 3.0 9.0 0.00 0.00 0.00 58 1010.1
20220702194615 71 169 2.0 7.0 0.00 0.00 0.00 57 1010.0
20220702193615 72 171 2.0 7.0 0.00 0.00 0.00 56 1010.1
20220702192615 72 167 2.0 7.0 0.00 0.00 0.00 58 1010.1
20220702190615 71 170 2.0 7.0 0.00 0.00 0.00 57 1010.2
20220702185615 71 181 1.0 7.0 0.00 0.00 0.00 60 1010.3
20220702183615 69 87 1.0 3.0 0.00 0.00 0.00 63 1010.5
20220702182615 69 82 2.0 5.0 0.00 0.00 0.00 62 1010.6
20220702181615 69 87 1.0 4.0 0.00 0.00 0.00 60 1010.6
20220702180615 68 77 1.0 4.0 0.00 0.00 0.00 61 1010.7
20220702174615 67 64 0.0 3.0 0.00 0.00 0.00 63 1010.7
20220702173615 66 64 1.0 5.0 0.00 0.00 0.00 64 1010.8
20220702172615 66 64 2.0 5.0 0.00 0.00 0.00 64 1010.8
20220702171615 65 64 2.0 6.0 0.00 0.00 0.00 66 1010.8
20220702170615 65 66 1.0 4.0 0.00 0.00 0.00 66 1011.0
20220702165616 65 66 0.0 2.0 0.00 0.00 0.00 68 1011.1
20220702164615 64 66 0.0 3.0 0.00 0.00 0.00 69 1011.2
20220702163615 63 66 2.0 5.0 0.00 0.00 0.00 70 1011.1
20220702162615 62 72 1.0 5.0 0.00 0.00 0.00 72 1011.1
20220702161615 62 77 1.0 5.0 0.00 0.00 0.00 72 1011.2
20220702155615 61 77 0.0 3.0 0.00 0.00 0.00 75 1011.2
20220702154615 60 77 1.0 6.0 0.00 0.00 0.00 76 1011.2
20220702145616 58 216 0.0 3.0 0.00 0.00 0.00 81 1011.3
20220702144616 57 216 0.0 2.0 0.00 0.00 0.00 82 1011.3
20220702143616 56 216 0.0 0.0 0.00 0.00 0.00 84 1011.4
20220702135615 54 216 0.0 3.0 0.00 0.00 0.00 89 1011.3
20220702131616 53 216 0.0 2.0 0.00 0.00 0.00 90 1011.3
20220702130615 53 216 0.0 0.0 0.00 0.00 0.00 90 1011.3
20220702125616 53 216 0.0 1.0 0.00 0.00 0.00 90 1011.3
20220702123615 53 216 0.0 1.0 0.00 0.00 0.00 89 1011.2
20220702122616 53 216 0.0 1.0 0.00 0.00 0.00 89 1011.3
20220702120615 53 216 0.0 2.0 0.00 0.00 0.00 89 1011.3
20220702115616 53 216 0.0 1.0 0.00 0.00 0.00 89 1011.3
20220702111616 53 216 0.0 1.0 0.00 0.00 0.00 88 1011.2
20220702110616 54 216 0.0 1.0 0.00 0.00 0.00 87 1011.2
20220702105615 54 216 0.0 1.0 0.00 0.00 0.00 87 1011.3
20220702104616 54 216 0.0 0.0 0.00 0.00 0.00 86 1011.3
20220702102616 54 216 0.0 1.0 0.00 0.00 0.00 86 1011.3
20220702095615 54 216 0.0 2.0 0.00 0.00 0.00 85 1011.3
20220702094615 55 216 0.0 3.0 0.00 0.00 0.00 85 1011.3
20220702093616 55 216 0.0 2.0 0.00 0.00 0.00 84 1011.3
20220702092615 55 216 0.0 3.0 0.00 0.00 0.00 84 1011.3
20220702091616 55 216 1.0 4.0 0.00 0.00 0.00 84 1011.3
20220702090615 55 216 1.0 3.0 0.00 0.00 0.00 83 1011.3
20220702084616 55 216 1.0 4.0 0.00 0.00 0.00 82 1011.3
20220702075616 56 216 1.0 4.0 0.00 0.00 0.00 81 1011.3
20220702073616 56 216 2.0 6.0 0.00 0.00 0.00 81 1011.4
20220702072616 56 216 2.0 5.0 0.00 0.00 0.00 80 1011.3
20220702064616 57 213 2.0 6.0 0.00 0.00 0.00 79 1011.5
20220702063616 57 212 2.0 7.0 0.00 0.00 0.00 79 1011.5
20220702062616 57 212 3.0 7.0 0.00 0.00 0.00 79 1011.4
20220702061616 57 210 3.0 9.0 0.00 0.00 0.00 79 1011.4
20220702060615 58 224 3.0 8.0 0.00 0.00 0.00 78 1011.5
20220702055616 58 247 2.0 6.0 0.00 0.00 0.00 78 1011.6
20220702053616 58 206 5.0 12.0 0.00 0.00 0.00 77 1011.7
20220702052616 59 216 6.0 11.0 0.00 0.00 0.00 75 1011.8
20220702051616 59 246 4.0 12.0 0.00 0.00 0.00 75 1011.8
20220702050616 60 208 5.0 11.0 0.00 0.00 0.00 74 1011.8
20220702045615 60 210 4.0 9.0 0.00 0.00 0.00 72 1011.8
20220702043615 61 239 5.0 11.0 0.00 0.00 0.00 69 1011.8
20220702042615 62 215 5.0 13.0 0.00 0.00 0.00 68 1011.8
20220702041615 63 200 4.0 12.0 0.00 0.00 0.00 65 1011.8
20220702035615 65 218 6.0 12.0 0.00 0.00 0.00 61 1011.8
20220702033616 67 199 6.0 14.0 0.00 0.00 0.00 56 1011.8
20220702025616 69 254 6.0 15.0 0.00 0.00 0.00 53 1011.8
20220702024616 69 210 7.0 16.0 0.00 0.00 0.00 53 1011.8
20220702023616 70 283 7.0 14.0 0.00 0.00 0.00 53 1011.8
20220702022616 70 290 6.0 14.0 0.00 0.00 0.00 53 1011.8
20220702021616 71 284 6.0 12.0 0.00 0.00 0.00 52 1011.9
20220702020615 71 232 6.0 14.0 0.00 0.00 0.00 52 1011.8
20220702013616 72 235 6.0 14.0 0.00 0.00 0.00 52 1012.3
20220702012615 72 238 6.0 12.0 0.00 0.00 0.00 52 1012.3
20220702011616 72 208 7.0 14.0 0.00 0.00 0.00 52 1012.3
20220702010616 73 204 7.0 16.0 0.00 0.00 0.00 50 1012.3
20220702005615 73 274 7.0 15.0 0.00 0.00 0.00 51 1012.4
20220702003616 74 218 8.0 17.0 0.00 0.00 0.00 48 1012.8
20220702002615 74 220 8.0 18.0 0.00 0.00 0.00 47 1012.8
20220702001616 75 247 6.0 16.0 0.00 0.00 0.00 46 1012.8
20220702000616 75 289 7.0 17.0 0.00 0.00 0.00 48 1012.9
20220701235616 75 258 6.0 15.0 0.00 0.00 0.00 47 1013.0
20220701232616 76 218 6.0 13.0 0.00 0.00 0.00 45 1013.3
20220701231616 76 267 6.0 12.0 0.00 0.00 0.00 45 1013.3
20220701222616 76 180 5.0 10.0 0.00 0.00 0.00 44 1013.8
20220701221616 76 193 5.0 11.0 0.00 0.00 0.00 43 1013.9
20220701220616 76 217 4.0 10.0 0.00 0.00 0.00 45 1013.9
20220701215616 76 223 5.0 10.0 0.00 0.00 0.00 48 1013.9
20220701213616 75 200 4.0 9.0 0.00 0.00 0.00 48 1014.2
20220701212616 75 205 4.0 10.0 0.00 0.00 0.00 48 1014.4
20220701211616 75 191 5.0 12.0 0.00 0.00 0.00 49 1014.4
20220701210616 75 197 5.0 12.0 0.00 0.00 0.00 48 1014.4